Time;durP1;ratioP1;P1;durP2;ratioP2;P2;SDS_P1;SDS_P2;PMS_P1;PMS_P2;Temp;Humidity;BMP_temperature;BMP_pressure;BME280_temperature;BME280_humidity;BME280_pressure;Samples;Min_cycle;Max_cycle;Signal;HPM_P1;HPM_P2
2022/06/25 00:00:36;;;;;;;0.03;0.03;;;16.60;99.90;;;;;;4994768;28;20171;-74
2022/06/25 00:03:03;;;;;;;0.08;0.08;;;16.70;99.90;;;;;;4994890;28;20062;-74
2022/06/25 00:05:28;;;;;;;0.10;0.10;;;16.90;99.90;;;;;;4993563;28;20026;-74
2022/06/25 00:07:56;;;;;;;0.10;0.10;;;17.00;99.90;;;;;;4994215;28;20429;-74
2022/06/25 00:10:22;;;;;;;0.10;0.10;;;17.10;99.90;;;;;;4994311;28;20393;-74
2022/06/25 00:12:49;;;;;;;0.30;0.30;;;17.00;99.90;;;;;;4994806;28;20100;-74
2022/06/25 00:15:14;;;;;;;0.00;0.00;;;16.90;99.90;;;;;;4993353;28;20406;-74
2022/06/25 00:17:40;;;;;;;0.10;0.10;;;16.90;99.90;;;;;;4994732;28;20048;-74
2022/06/25 00:20:07;;;;;;;0.00;0.00;;;17.00;99.90;;;;;;4994228;28;20113;-74
2022/06/25 00:22:33;;;;;;;0.10;0.10;;;16.90;99.90;;;;;;4993213;28;20062;-74
2022/06/25 00:24:59;;;;;;;0.10;0.10;;;16.70;99.90;;;;;;4994186;28;20034;-74
2022/06/25 00:27:25;;;;;;;0.10;0.10;;;16.50;99.90;;;;;;4994496;28;20022;-74
2022/06/25 00:29:51;;;;;;;0.47;0.47;;;16.30;99.90;;;;;;4992998;28;20035;-74
2022/06/25 00:32:17;;;;;;;0.10;0.10;;;16.10;99.90;;;;;;4994410;28;20022;-74
2022/06/25 00:34:42;;;;;;;0.10;0.10;;;15.90;99.90;;;;;;4994332;28;20026;-74
2022/06/25 00:37:09;;;;;;;0.10;0.10;;;15.70;99.90;;;;;;4994228;28;20063;-74
2022/06/25 00:39:36;;;;;;;0.73;0.73;;;15.90;99.90;;;;;;4993973;28;20026;-74
2022/06/25 00:42:07;;;;;;;0.10;0.10;;;15.70;99.90;;;;;;4994025;28;20023;-74
2022/06/25 00:44:33;;;;;;;0.10;0.10;;;15.60;99.90;;;;;;4994259;28;20018;-74
2022/06/25 00:46:59;;;;;;;0.10;0.10;;;15.60;99.90;;;;;;4992648;28;20041;-74
2022/06/25 00:49:25;;;;;;;0.00;0.00;;;15.70;99.90;;;;;;4993845;28;20030;-74
2022/06/25 00:51:51;;;;;;;0.20;0.20;;;15.70;99.90;;;;;;4993897;28;20034;-74
2022/06/25 00:54:19;;;;;;;0.10;0.10;;;15.70;99.90;;;;;;4993938;28;20034;-74
2022/06/25 00:56:49;;;;;;;0.35;0.35;;;15.70;99.90;;;;;;4993967;28;20037;-74
2022/06/25 00:59:21;;;;;;;0.32;0.20;;;15.80;99.90;;;;;;4993683;28;20402;-74
2022/06/25 01:01:46;;;;;;;0.20;0.20;;;15.70;99.90;;;;;;4993650;28;20425;-74
2022/06/25 01:04:12;;;;;;;0.10;0.10;;;15.60;99.90;;;;;;4992556;28;20057;-74
2022/06/25 01:06:38;;;;;;;0.10;0.10;;;15.50;99.90;;;;;;4992452;28;20054;-74
2022/06/25 01:09:04;;;;;;;0.10;0.10;;;15.50;99.90;;;;;;4993440;28;20367;-74
2022/06/25 01:11:30;;;;;;;0.08;0.08;;;15.40;99.90;;;;;;4993634;28;20033;-74
2022/06/25 01:13:56;;;;;;;0.10;0.08;;;15.50;99.90;;;;;;4976317;28;20049;-74
2022/06/25 01:16:22;;;;;;;0.43;0.43;;;15.70;99.90;;;;;;4993422;28;20533;-74
2022/06/25 01:18:48;;;;;;;0.10;0.10;;;15.80;99.90;;;;;;4993369;28;20027;-75
2022/06/25 01:21:14;;;;;;;0.52;0.52;;;15.70;99.90;;;;;;4991049;28;20482;-74
2022/06/25 01:23:41;;;;;;;0.10;0.10;;;15.70;99.90;;;;;;4993369;28;20033;-74
2022/06/25 01:26:07;;;;;;;4.13;0.28;;;15.70;99.90;;;;;;4992989;28;20065;-74
2022/06/25 01:28:33;;;;;;;0.10;0.10;;;15.60;99.90;;;;;;4993261;28;20030;-74
2022/06/25 01:30:59;;;;;;;0.10;0.10;;;15.60;99.90;;;;;;4993093;28;20022;-74
2022/06/25 01:33:24;;;;;;;0.10;0.10;;;15.60;99.90;;;;;;4993277;28;20033;-74
2022/06/25 01:35:50;;;;;;;0.00;0.00;;;15.50;99.90;;;;;;4993181;28;20022;-74
2022/06/25 01:38:16;;;;;;;0.10;0.10;;;15.50;99.90;;;;;;4993106;28;20023;-71
2022/06/25 01:40:42;;;;;;;0.10;0.10;;;15.40;99.90;;;;;;4991569;28;20029;-74
2022/06/25 01:43:08;;;;;;;0.05;0.05;;;15.30;99.90;;;;;;4993038;28;20480;-74
2022/06/25 01:45:37;;;;;;;0.10;0.10;;;15.30;99.90;;;;;;4992993;28;20018;-75
2022/06/25 01:48:05;;;;;;;0.00;0.00;;;15.40;99.90;;;;;;4993014;28;20071;-73
2022/06/25 01:50:32;;;;;;;0.15;0.15;;;15.40;99.90;;;;;;4992783;28;20030;-73
2022/06/25 01:52:58;;;;;;;0.00;0.00;;;15.40;99.90;;;;;;4992952;28;20034;-74
2022/06/25 01:55:24;;;;;;;0.20;0.20;;;15.40;99.90;;;;;;4992839;28;20031;-74
2022/06/25 01:57:50;;;;;;;0.13;0.13;;;15.60;99.90;;;;;;4992807;28;20041;-74
2022/06/25 02:00:19;;;;;;;0.10;0.10;;;15.70;99.90;;;;;;4992656;28;20065;-74
2022/06/25 02:02:45;;;;;;;0.10;0.10;;;15.70;99.90;;;;;;4992662;28;20058;-74
2022/06/25 02:05:14;;;;;;;0.03;0.03;;;15.70;99.90;;;;;;4992755;28;20023;-74
2022/06/25 02:07:40;;;;;;;0.10;0.10;;;15.90;99.90;;;;;;4992662;28;20022;-74
2022/06/25 02:10:07;;;;;;;0.10;0.10;;;15.80;99.90;;;;;;4992914;28;20494;-75
2022/06/25 02:12:33;;;;;;;0.10;0.10;;;15.70;99.90;;;;;;4992559;28;20054;-74
2022/06/25 02:14:58;;;;;;;0.10;0.10;;;15.60;99.90;;;;;;4992568;28;20072;-73
2022/06/25 02:17:24;;;;;;;0.10;0.10;;;15.60;99.90;;;;;;4992489;28;20438;-74
2022/06/25 02:19:50;;;;;;;0.10;0.10;;;15.70;99.90;;;;;;4992433;28;20073;-74
2022/06/25 02:22:16;;;;;;;0.22;0.22;;;15.60;99.90;;;;;;4992355;28;20514;-74
2022/06/25 02:24:42;;;;;;;0.10;0.10;;;15.50;99.90;;;;;;4992672;28;20475;-74
2022/06/25 02:27:09;;;;;;;0.10;0.10;;;15.50;99.90;;;;;;4991139;28;20402;-74
2022/06/25 02:29:34;;;;;;;0.00;0.00;;;15.70;99.90;;;;;;4992370;28;20026;-74
2022/06/25 02:32:00;;;;;;;0.10;0.10;;;16.10;99.90;;;;;;4993947;28;20379;-75
2022/06/25 02:34:26;;;;;;;0.10;0.10;;;16.30;99.90;;;;;;4996520;28;20023;-73
2022/06/25 02:36:52;;;;;;;0.10;0.10;;;16.20;99.90;;;;;;4996343;28;20030;-74
2022/06/25 02:39:18;;;;;;;0.10;0.10;;;16.00;99.90;;;;;;4996332;28;20029;-74
2022/06/25 02:41:44;;;;;;;0.08;0.08;;;15.90;99.90;;;;;;4996345;28;20162;-73
2022/06/25 02:44:10;;;;;;;0.08;0.08;;;16.00;99.90;;;;;;4995230;28;20030;-74
2022/06/25 02:46:36;;;;;;;0.00;0.00;;;16.00;99.90;;;;;;4996218;28;20026;-73
2022/06/25 02:49:02;;;;;;;0.10;0.10;;;16.00;99.90;;;;;;4996017;28;20081;-74
2022/06/25 02:51:29;;;;;;;0.03;0.03;;;15.90;99.90;;;;;;4996215;28;20050;-74
2022/06/25 02:53:55;;;;;;;0.00;0.00;;;15.90;99.90;;;;;;4995069;28;20031;-75
2022/06/25 02:59:07;;;;;;;0.32;0.32;;;16.00;99.90;;;;;;4995883;28;20097;-74
2022/06/25 03:01:32;;;;;;;0.10;0.10;;;16.00;99.90;;;;;;4995823;28;20042;-74
2022/06/25 03:03:59;;;;;;;0.10;0.10;;;16.00;99.90;;;;;;4995991;28;20394;-74
2022/06/25 03:06:24;;;;;;;0.10;0.10;;;16.10;99.90;;;;;;4995811;28;20026;-74
2022/06/25 03:08:50;;;;;;;0.10;0.10;;;16.10;99.90;;;;;;4994469;28;20463;-74
2022/06/25 03:11:17;;;;;;;0.08;0.08;;;16.10;99.90;;;;;;4996199;28;20038;-74
2022/06/25 03:13:42;;;;;;;0.10;0.10;;;16.00;99.90;;;;;;5007804;23;20045;-75
2022/06/25 03:16:09;;;;;;;0.10;0.10;;;15.90;99.90;;;;;;4994804;28;20034;-76
2022/06/25 03:18:36;;;;;;;0.00;0.00;;;16.00;99.90;;;;;;4994558;28;20489;-75
2022/06/25 03:21:02;;;;;;;0.10;0.10;;;16.00;99.90;;;;;;4994346;28;20022;-75
2022/06/25 03:23:29;;;;;;;0.00;0.00;;;16.10;99.90;;;;;;4995673;28;20023;-75
2022/06/25 03:25:55;;;;;;;0.10;0.10;;;16.10;99.90;;;;;;4995822;28;20105;-76
2022/06/25 03:28:21;;;;;;;0.00;0.00;;;16.10;99.90;;;;;;4995571;28;20157;-75
2022/06/25 03:30:47;;;;;;;0.10;0.10;;;16.20;99.90;;;;;;4995606;28;20035;-76
2022/06/25 03:33:13;;;;;;;0.10;0.10;;;16.30;99.90;;;;;;4995615;28;20031;-75
2022/06/25 03:35:38;;;;;;;0.00;0.00;;;16.40;99.90;;;;;;4995557;28;20381;-75
2022/06/25 03:38:04;;;;;;;0.00;0.00;;;16.20;99.90;;;;;;4994307;28;20110;-75
2022/06/25 03:40:30;;;;;;;0.10;0.10;;;16.10;99.90;;;;;;4994047;28;20080;-75
2022/06/25 03:42:57;;;;;;;0.10;0.10;;;16.10;99.90;;;;;;4976766;28;20057;-75
2022/06/25 03:45:23;;;;;;;0.10;0.10;;;16.10;99.90;;;;;;4993919;28;20070;-75
2022/06/25 03:47:52;;;;;;;0.10;0.10;;;16.10;99.90;;;;;;4995189;28;20022;-75
2022/06/25 03:50:21;;;;;;;0.10;0.10;;;16.10;99.90;;;;;;4995101;28;20102;-75
2022/06/25 03:52:48;;;;;;;0.00;0.00;;;16.20;99.90;;;;;;4995141;28;20109;-75
2022/06/25 03:55:15;;;;;;;0.10;0.10;;;16.20;99.90;;;;;;4995185;28;20019;-76
2022/06/25 03:57:41;;;;;;;0.10;0.10;;;16.10;99.90;;;;;;4993877;28;20065;-75
2022/06/25 04:00:08;;;;;;;0.10;0.10;;;16.10;99.90;;;;;;4995090;28;20517;-75
2022/06/25 04:02:35;;;;;;;0.10;0.10;;;16.10;99.90;;;;;;4993717;28;20026;-75
2022/06/25 04:05:02;;;;;;;0.00;0.00;;;16.10;99.90;;;;;;4994966;28;20073;-75
2022/06/25 04:07:27;;;;;;;0.00;0.00;;;16.20;99.90;;;;;;4994889;28;20026;-75
2022/06/25 04:09:54;;;;;;;0.10;0.10;;;16.20;99.90;;;;;;4993492;28;20494;-75
2022/06/25 04:12:20;;;;;;;0.10;0.10;;;16.30;99.90;;;;;;4993586;28;20030;-75
2022/06/25 04:14:45;;;;;;;0.10;0.10;;;16.30;99.90;;;;;;4993469;28;20050;-75
2022/06/25 04:17:12;;;;;;;0.10;0.10;;;16.30;99.90;;;;;;4993443;28;20022;-75
2022/06/25 04:19:41;;;;;;;0.10;0.10;;;16.40;99.90;;;;;;4993347;28;20034;-76
2022/06/25 04:22:11;;;;;;;0.10;0.10;;;16.60;99.90;;;;;;4994663;28;20050;-75
2022/06/25 04:24:38;;;;;;;0.10;0.10;;;16.50;99.90;;;;;;4994791;28;20034;-75
2022/06/25 04:27:05;;;;;;;0.10;0.10;;;16.40;99.90;;;;;;4993278;28;20121;-76
2022/06/25 04:29:31;;;;;;;0.05;0.05;;;16.40;99.90;;;;;;4993128;28;20067;-75
2022/06/25 04:31:57;;;;;;;0.10;0.10;;;16.60;99.90;;;;;;4994601;28;20045;-75
2022/06/25 04:34:24;;;;;;;0.10;0.10;;;16.80;99.90;;;;;;4994235;28;20030;-75
2022/06/25 04:36:50;;;;;;;0.10;0.10;;;16.80;99.90;;;;;;4993201;28;20057;-75
2022/06/25 04:39:16;;;;;;;0.20;0.20;;;16.80;99.90;;;;;;4994282;28;20397;-75
2022/06/25 04:41:43;;;;;;;0.10;0.10;;;16.60;99.90;;;;;;4976910;28;20371;-76
2022/06/25 04:44:09;;;;;;;0.10;0.10;;;16.30;99.90;;;;;;4994184;28;20018;-76
2022/06/25 04:46:35;;;;;;;0.20;0.20;;;16.20;99.90;;;;;;4994082;28;20057;-76
2022/06/25 04:49:00;;;;;;;0.10;0.10;;;16.20;99.90;;;;;;4993977;28;20029;-76
2022/06/25 04:51:26;;;;;;;0.10;0.10;;;16.30;99.90;;;;;;4994189;28;20034;-76
2022/06/25 04:53:55;;;;;;;0.10;0.10;;;16.40;99.90;;;;;;4993935;28;20073;-75
2022/06/25 04:56:26;;;;;;;0.10;0.10;;;16.60;99.90;;;;;;4992457;28;20026;-75
2022/06/25 04:58:52;;;;;;;0.10;0.10;;;16.70;99.90;;;;;;4993890;28;20034;-76
2022/06/25 05:01:18;;;;;;;0.10;0.10;;;16.70;99.90;;;;;;4993906;28;20029;-76
2022/06/25 05:03:44;;;;;;;0.10;0.10;;;16.70;99.90;;;;;;4992493;28;20053;-76
2022/06/25 05:06:10;;;;;;;0.10;0.10;;;16.80;99.90;;;;;;4992610;28;20053;-76
2022/06/25 05:08:36;;;;;;;0.10;0.10;;;16.60;99.90;;;;;;4992448;28;20026;-76
2022/06/25 05:11:02;;;;;;;0.10;0.10;;;16.50;99.90;;;;;;4993783;28;20027;-76
2022/06/25 05:13:29;;;;;;;0.20;0.20;;;16.50;99.90;;;;;;4992224;28;20027;-76
2022/06/25 05:15:55;;;;;;;0.10;0.10;;;16.50;99.90;;;;;;4993639;28;20022;-76
2022/06/25 05:18:21;;;;;;;0.10;0.10;;;16.50;99.90;;;;;;4993436;28;20022;-75
2022/06/25 05:20:47;;;;;;;0.10;0.10;;;16.50;99.90;;;;;;4992284;28;20625;-75
2022/06/25 05:23:13;;;;;;;0.10;0.10;;;16.50;99.90;;;;;;4993539;28;20050;-75
2022/06/25 05:25:41;;;;;;;0.10;0.10;;;16.50;99.90;;;;;;4992287;28;20050;-76
2022/06/25 05:28:07;;;;;;;0.32;0.32;;;16.40;99.90;;;;;;4993423;28;20023;-76
2022/06/25 05:30:33;;;;;;;0.10;0.10;;;16.40;99.90;;;;;;4993302;28;20382;-76
2022/06/25 05:32:59;;;;;;;0.10;0.10;;;16.60;99.90;;;;;;4991975;28;20030;-76
2022/06/25 05:35:25;;;;;;;0.20;0.20;;;16.60;99.90;;;;;;4993460;28;20089;-76
2022/06/25 05:37:51;;;;;;;0.28;0.28;;;16.80;99.90;;;;;;4993361;28;20022;-76
2022/06/25 05:40:18;;;;;;;0.10;0.10;;;17.00;99.90;;;;;;4991892;28;20035;-76
2022/06/25 05:42:44;;;;;;;0.20;0.20;;;17.00;99.90;;;;;;4993216;28;20034;-75
2022/06/25 05:45:10;;;;;;;0.00;0.00;;;17.10;99.90;;;;;;4991829;28;20610;-76
2022/06/25 05:47:36;;;;;;;0.10;0.10;;;17.00;99.90;;;;;;4991879;28;20033;-75
2022/06/25 05:50:02;;;;;;;0.10;0.10;;;17.00;99.90;;;;;;4992904;28;20088;-76
2022/06/25 05:52:28;;;;;;;0.10;0.10;;;17.10;99.90;;;;;;4993209;28;20409;-76
2022/06/25 05:54:54;;;;;;;0.20;0.20;;;17.20;99.90;;;;;;4993061;28;20037;-76
2022/06/25 05:57:20;;;;;;;0.20;0.20;;;17.30;99.90;;;;;;4993009;28;20034;-76
2022/06/25 05:59:46;;;;;;;0.38;0.10;;;17.30;99.90;;;;;;4992758;28;20124;-75
2022/06/25 06:02:12;;;;;;;0.10;0.10;;;17.40;99.90;;;;;;4991421;28;20034;-76
2022/06/25 06:04:38;;;;;;;0.10;0.10;;;17.20;99.90;;;;;;4991573;28;20130;-76
2022/06/25 06:07:04;;;;;;;0.10;0.10;;;17.00;99.90;;;;;;4974918;28;20483;-76
2022/06/25 06:09:32;;;;;;;0.22;0.22;;;17.10;99.90;;;;;;4991668;28;20090;-76
2022/06/25 06:11:58;;;;;;;0.10;0.10;;;17.20;99.90;;;;;;4991770;28;20026;-76
2022/06/25 06:14:24;;;;;;;0.20;0.20;;;17.30;99.90;;;;;;4992925;28;20121;-76
2022/06/25 06:16:50;;;;;;;0.00;0.00;;;17.30;99.90;;;;;;4992861;28;20030;-76
2022/06/25 06:19:16;;;;;;;0.00;0.00;;;17.30;99.90;;;;;;4992713;28;20058;-76
2022/06/25 06:21:41;;;;;;;0.20;0.20;;;17.40;99.90;;;;;;4992685;28;20026;-76
2022/06/25 06:24:07;;;;;;;0.00;0.00;;;17.50;99.90;;;;;;4992697;28;20018;-76
2022/06/25 06:26:34;;;;;;;0.10;0.10;;;17.50;99.90;;;;;;4991307;28;20019;-76
2022/06/25 06:29:00;;;;;;;0.10;0.10;;;17.70;99.90;;;;;;4991268;28;20080;-76
2022/06/25 06:31:26;;;;;;;0.10;0.10;;;17.60;99.90;;;;;;4991336;28;20083;-76
2022/06/25 06:33:51;;;;;;;0.10;0.10;;;17.70;99.90;;;;;;4992469;28;20022;-76
2022/06/25 06:36:17;;;;;;;0.00;0.00;;;17.60;99.90;;;;;;4992705;28;20026;-76
2022/06/25 06:38:43;;;;;;;2.75;0.10;;;17.80;99.90;;;;;;4991123;28;20034;-76
2022/06/25 06:41:09;;;;;;;0.00;0.00;;;17.90;99.90;;;;;;4992466;28;20040;-76
2022/06/25 06:43:36;;;;;;;0.10;0.10;;;17.90;99.90;;;;;;4992445;28;20026;-76
2022/06/25 06:46:02;;;;;;;0.10;0.10;;;18.10;99.90;;;;;;4992564;28;20027;-76
2022/06/25 06:48:27;;;;;;;0.10;0.10;;;18.10;99.90;;;;;;4992359;28;20014;-76
2022/06/25 06:50:53;;;;;;;0.10;0.10;;;18.10;99.90;;;;;;4992597;28;20053;-76
2022/06/25 06:53:23;;;;;;;0.15;0.15;;;18.20;99.90;;;;;;4991390;28;20081;-76
2022/06/25 06:55:49;;;;;;;0.08;0.08;;;18.20;99.90;;;;;;4991099;28;20034;-76
2022/06/25 06:58:15;;;;;;;0.10;0.10;;;18.30;99.90;;;;;;4992583;28;20070;-76
2022/06/25 07:00:40;;;;;;;0.10;0.10;;;18.40;99.90;;;;;;4991106;28;20038;-76
2022/06/25 07:03:06;;;;;;;0.10;0.10;;;18.60;99.90;;;;;;4974956;28;20069;-76
2022/06/25 07:05:32;;;;;;;0.10;0.10;;;18.70;99.90;;;;;;4992182;28;20023;-76
2022/06/25 07:07:58;;;;;;;0.10;0.10;;;18.80;99.90;;;;;;4974914;28;20027;-77
2022/06/25 07:10:23;;;;;;;0.10;0.10;;;18.90;99.90;;;;;;4990968;28;20058;-77
2022/06/25 07:12:49;;;;;;;0.17;0.17;;;18.90;99.90;;;;;;4992164;28;20033;-76
2022/06/25 07:15:15;;;;;;;0.08;0.08;;;19.10;99.90;;;;;;4992057;28;20053;-76
2022/06/25 07:17:41;;;;;;;0.00;0.00;;;19.40;99.90;;;;;;4993225;28;20478;-76
2022/06/25 07:20:07;;;;;;;0.03;0.03;;;19.40;99.90;;;;;;4995728;28;20022;-77
2022/06/25 07:22:33;;;;;;;0.05;0.05;;;19.60;99.90;;;;;;4995821;28;20030;-76
2022/06/25 07:24:59;;;;;;;0.17;0.17;;;19.50;99.90;;;;;;4994320;28;20029;-76
2022/06/25 07:27:25;;;;;;;0.10;0.10;;;19.60;99.90;;;;;;4994365;28;20030;-76
2022/06/25 07:29:51;;;;;;;0.00;0.00;;;19.50;99.90;;;;;;4994571;28;20042;-77
2022/06/25 07:32:16;;;;;;;0.00;0.00;;;19.90;99.90;;;;;;4995631;28;20058;-77
2022/06/25 07:34:42;;;;;;;0.00;0.00;;;20.10;99.90;;;;;;4994308;28;20081;-77
2022/06/25 07:37:08;;;;;;;0.10;0.10;;;19.90;99.90;;;;;;4994145;28;20601;-76
2022/06/25 07:39:34;;;;;;;0.00;0.00;;;20.00;99.90;;;;;;4977932;28;20041;-76
2022/06/25 07:42:00;;;;;;;0.10;0.10;;;20.30;99.90;;;;;;4995328;28;20109;-76
2022/06/25 07:44:26;;;;;;;0.65;0.20;;;20.50;99.90;;;;;;4994087;28;20085;-76
2022/06/25 07:46:51;;;;;;;0.00;0.00;;;20.80;99.90;;;;;;4994210;28;20026;-76
2022/06/25 07:49:17;;;;;;;0.47;0.45;;;20.80;99.90;;;;;;4993975;28;20025;-77
2022/06/25 07:52:00;;;;;;;0.10;0.10;;;20.90;99.90;;;;;;4994012;28;20034;-76
2022/06/25 07:54:30;;;;;;;0.10;0.10;;;21.10;99.90;;;;;;4995221;28;20394;-76
2022/06/25 07:56:57;;;;;;;0.00;0.00;;;21.20;99.90;;;;;;4995120;28;20030;-76
2022/06/25 07:59:23;;;;;;;0.00;0.00;;;21.30;99.90;;;;;;4994903;28;20034;-77
2022/06/25 08:01:49;;;;;;;0.05;0.05;;;21.30;99.90;;;;;;4995008;28;20106;-77
2022/06/25 08:04:15;;;;;;;0.00;0.00;;;20.90;99.90;;;;;;4993694;28;20033;-76
2022/06/25 08:06:41;;;;;;;0.00;0.00;;;21.00;99.90;;;;;;4994950;28;20030;-77
2022/06/25 08:09:10;;;;;;;0.00;0.00;;;21.20;99.90;;;;;;4994810;28;20022;-76
2022/06/25 08:11:37;;;;;;;0.00;0.00;;;21.10;99.90;;;;;;4994738;28;20486;-76
2022/06/25 08:14:03;;;;;;;0.00;0.00;;;21.50;99.90;;;;;;4994729;28;20133;-76
2022/06/25 08:16:29;;;;;;;0.10;0.10;;;21.90;99.90;;;;;;4993455;28;20157;-76
2022/06/25 08:18:55;;;;;;;0.00;0.00;;;22.00;99.90;;;;;;4994720;28;20070;-78
2022/06/25 08:21:21;;;;;;;0.00;0.00;;;22.30;99.90;;;;;;4994603;28;20026;-76
2022/06/25 08:23:47;;;;;;;0.00;0.00;;;22.80;99.90;;;;;;4994720;28;20026;-76
2022/06/25 08:26:15;;;;;;;0.10;0.10;;;22.90;99.00;;;;;;4994651;28;20034;-76
2022/06/25 08:28:42;;;;;;;0.05;0.05;;;22.60;97.20;;;;;;4993008;28;20023;-76
2022/06/25 08:31:08;;;;;;;0.10;0.10;;;22.50;96.70;;;;;;4994065;28;20026;-76
2022/06/25 08:33:33;;;;;;;0.00;0.00;;;22.70;96.50;;;;;;4994568;28;20025;-76
2022/06/25 08:35:59;;;;;;;0.00;0.00;;;23.00;96.00;;;;;;4994362;28;20434;-77
2022/06/25 08:38:25;;;;;;;2.45;1.55;;;23.20;95.60;;;;;;4994449;28;20022;-77
2022/06/25 08:40:58;;;;;;;0.00;0.00;;;22.90;95.10;;;;;;4994168;28;20018;-76
2022/06/25 08:43:24;;;;;;;0.00;0.00;;;23.00;96.30;;;;;;4994331;28;20419;-77
2022/06/25 08:45:50;;;;;;;0.00;0.00;;;23.00;95.10;;;;;;4994246;28;20102;-76
2022/06/25 08:48:20;;;;;;;0.10;0.10;;;23.00;95.10;;;;;;4992866;28;20057;-77
2022/06/25 08:50:48;;;;;;;0.00;0.00;;;23.30;94.20;;;;;;4994008;28;20129;-76
2022/06/25 08:53:15;;;;;;;0.15;0.15;;;23.30;94.90;;;;;;4992909;28;20036;-76
2022/06/25 08:55:44;;;;;;;0.10;0.10;;;23.40;94.70;;;;;;4994069;28;20026;-76
2022/06/25 08:58:09;;;;;;;0.03;0.03;;;22.90;93.20;;;;;;4992656;28;20030;-76
2022/06/25 09:00:37;;;;;;;0.10;0.10;;;23.00;93.70;;;;;;4992774;28;20421;-76
2022/06/25 09:03:04;;;;;;;0.00;0.00;;;23.00;93.30;;;;;;4992546;28;20030;-76
2022/06/25 09:05:32;;;;;;;0.00;0.00;;;22.70;93.70;;;;;;4992420;28;20023;-78
2022/06/25 09:08:03;;;;;;;3.78;0.13;;;22.50;94.90;;;;;;4992398;28;20026;-76
2022/06/25 09:10:30;;;;;;;0.00;0.00;;;22.40;95.00;;;;;;4993471;28;20029;-76
2022/06/25 09:13:00;;;;;;;0.10;0.10;;;22.70;94.10;;;;;;4992159;28;20035;-76
2022/06/25 09:15:34;;;;;;;0.10;0.10;;;23.30;91.60;;;;;;5007655;23;20532;-75
2022/06/25 09:18:26;;;;;;;0.00;0.00;;;23.80;91.90;;;;;;4992406;28;20466;-74
2022/06/25 09:21:05;;;;;;;0.00;0.00;;;23.80;89.90;;;;;;4952869;28;20045;-75
2022/06/25 09:23:38;;;;;;;0.00;0.00;;;23.40;90.10;;;;;;4973815;28;20059;-75
2022/06/25 09:26:09;;;;;;;0.00;0.00;;;23.40;91.40;;;;;;4972292;28;20023;-74
2022/06/25 09:28:40;;;;;;;0.00;0.00;;;23.20;90.60;;;;;;4972531;28;20105;-75
2022/06/25 09:31:07;;;;;;;0.00;0.00;;;22.80;91.70;;;;;;4972372;28;20042;-75
2022/06/25 09:33:34;;;;;;;0.00;0.00;;;22.90;91.50;;;;;;4973795;28;20368;-75
2022/06/25 09:36:00;;;;;;;0.25;0.17;;;22.80;90.50;;;;;;4973444;28;20069;-75
2022/06/25 09:38:26;;;;;;;0.00;0.00;;;22.50;90.30;;;;;;4956224;28;20027;-75
2022/06/25 09:40:58;;;;;;;0.00;0.00;;;22.40;91.90;;;;;;4972599;28;20023;-75
2022/06/25 09:43:28;;;;;;;0.00;0.00;;;22.30;92.20;;;;;;4973583;28;20030;-75
2022/06/25 09:45:56;;;;;;;0.00;0.00;;;23.00;90.80;;;;;;4973546;28;20495;-75
2022/06/25 09:48:24;;;;;;;0.00;0.00;;;23.20;91.00;;;;;;4973518;28;20027;-75
2022/06/25 09:51:16;;;;;;;0.00;0.00;;;24.00;88.10;;;;;;4971973;28;20022;-75
2022/06/25 09:53:44;;;;;;;;;;;24.00;84.00;;;;;;4956557;28;20030;-75
2022/06/25 09:56:12;;;;;;;0.10;0.10;;;23.30;87.50;;;;;;4988399;28;20281;-75
2022/06/25 09:58:40;;;;;;;0.00;0.00;;;23.50;85.30;;;;;;4973363;28;20125;-76
2022/06/25 10:01:06;;;;;;;0.03;0.03;;;23.50;87.90;;;;;;4972024;28;20097;-75
2022/06/25 10:03:34;;;;;;;0.75;0.20;;;24.20;83.20;;;;;;4973358;28;20019;-75
2022/06/25 10:06:00;;;;;;;0.10;0.10;;;24.20;78.70;;;;;;4971987;28;20550;-75
2022/06/25 10:08:29;;;;;;;0.00;0.00;;;24.80;78.20;;;;;;4972134;28;20027;-75
2022/06/25 10:10:56;;;;;;;0.10;0.10;;;25.10;75.50;;;;;;4955935;28;20486;-75
2022/06/25 10:13:24;;;;;;;0.00;0.00;;;25.50;74.40;;;;;;4972204;28;20558;-75
2022/06/25 10:15:51;;;;;;;0.00;0.00;;;25.70;73.50;;;;;;4955917;28;20031;-75
2022/06/25 10:18:18;;;;;;;0.10;0.10;;;25.50;73.40;;;;;;4973130;28;20478;-75
2022/06/25 10:20:44;;;;;;;0.00;0.00;;;25.30;74.80;;;;;;4973183;28;20027;-75
2022/06/25 10:23:13;;;;;;;0.00;0.00;;;25.50;75.60;;;;;;4973212;28;20023;-75
2022/06/25 10:25:39;;;;;;;0.30;0.17;;;25.90;70.60;;;;;;4972130;28;20058;-75
2022/06/25 10:28:24;;;;;;;0.00;0.00;;;25.90;68.10;;;;;;4972297;28;20085;-75
2022/06/25 10:30:53;;;;;;;0.00;0.00;;;25.80;68.40;;;;;;4971868;28;20031;-77
2022/06/25 10:33:21;;;;;;;0.00;0.00;;;26.60;70.50;;;;;;4956303;28;20414;-75
2022/06/25 10:35:49;;;;;;;0.00;0.00;;;26.70;66.10;;;;;;4983527;23;20491;-71
2022/06/25 10:38:16;;;;;;;0.10;0.10;;;26.80;66.10;;;;;;4992085;28;20042;-73
2022/06/25 10:40:49;;;;;;;0.00;0.00;;;26.20;66.00;;;;;;4991384;28;20030;-73
2022/06/25 10:43:47;;;;;;;0.00;0.00;;;26.60;65.90;;;;;;4992297;28;20394;-73
2022/06/25 10:46:32;;;;;;;0.00;0.00;;;27.00;62.90;;;;;;4992495;28;20019;-73
2022/06/25 10:49:10;;;;;;;0.00;0.00;;;27.00;63.10;;;;;;4991311;28;20026;-73
2022/06/25 10:51:38;;;;;;;0.00;0.00;;;26.80;62.20;;;;;;4991389;28;20030;-73
2022/06/25 10:54:12;;;;;;;0.00;0.00;;;26.90;62.60;;;;;;4995754;28;20030;-74
2022/06/25 10:56:49;;;;;;;0.00;0.00;;;27.20;62.60;;;;;;4995290;28;20030;-74
2022/06/25 10:59:45;;;;;;;0.15;0.10;;;27.90;61.20;;;;;;4996141;28;20056;-74
2022/06/25 11:02:16;;;;;;;0.00;0.00;;;27.60;59.40;;;;;;4987861;28;20035;-73
2022/06/25 11:04:53;;;;;;;0.00;0.00;;;27.70;59.30;;;;;;4996236;28;20387;-73
2022/06/25 11:07:22;;;;;;;0.00;0.00;;;28.10;59.90;;;;;;4996149;28;20066;-73
2022/06/25 11:10:03;;;;;;;0.00;0.00;;;28.30;56.60;;;;;;4994641;28;20038;-73
2022/06/25 11:12:34;;;;;;;0.00;0.00;;;28.20;56.10;;;;;;4996324;28;20080;-73
2022/06/25 11:15:10;;;;;;;0.10;0.10;;;28.10;57.30;;;;;;4996010;28;20029;-73
2022/06/25 11:17:36;;;;;;;0.00;0.00;;;28.30;57.20;;;;;;4996005;28;20018;-73
2022/06/25 11:20:12;;;;;;;0.00;0.00;;;28.60;57.40;;;;;;4995973;28;20339;-73
2022/06/25 11:22:49;;;;;;;0.25;0.10;;;28.60;56.10;;;;;;4995737;28;20030;-74
2022/06/25 11:31:11;;;;;;;0.00;0.00;;;27.80;59.50;;;;;;4916296;29;20038;-73
2022/06/25 11:33:37;;;;;;;0.00;0.00;;;28.10;58.40;;;;;;4916631;29;20508;-73
2022/06/25 11:36:08;;;;;;;0.00;0.00;;;28.30;57.80;;;;;;4956119;28;20065;-73
2022/06/25 11:38:34;;;;;;;0.00;0.00;;;27.70;58.80;;;;;;4995638;28;20030;-74
2022/06/25 11:41:00;;;;;;;0.00;0.00;;;27.90;57.90;;;;;;4995701;28;20508;-73
2022/06/25 11:43:29;;;;;;;0.10;0.08;;;27.20;57.20;;;;;;4995427;28;20038;-73
2022/06/25 11:45:57;;;;;;;0.00;0.00;;;26.50;59.10;;;;;;4995629;28;20026;-73
2022/06/25 11:48:27;;;;;;;0.00;0.00;;;26.50;59.00;;;;;;4995397;28;20029;-73
2022/06/25 11:50:59;;;;;;;0.00;0.00;;;26.80;58.00;;;;;;4995363;28;20015;-72
2022/06/25 11:53:25;;;;;;;0.05;0.05;;;27.00;56.70;;;;;;4995263;28;20033;-74
2022/06/25 11:56:02;;;;;;;0.00;0.00;;;26.60;59.30;;;;;;4995395;28;20365;-73
2022/06/25 11:58:31;;;;;;;0.00;0.00;;;26.90;60.90;;;;;;4995187;28;20382;-73
2022/06/25 12:00:58;;;;;;;0.00;0.00;;;27.20;58.70;;;;;;4995072;28;20049;-73
2022/06/25 12:03:28;;;;;;;0.00;0.00;;;27.60;57.30;;;;;;4994883;28;20029;-74
2022/06/25 12:05:56;;;;;;;0.00;0.00;;;27.50;54.30;;;;;;4994417;28;20022;-74
2022/06/25 12:08:26;;;;;;;0.00;0.00;;;27.20;55.30;;;;;;4994972;28;20544;-74
2022/06/25 12:10:53;;;;;;;0.00;0.00;;;26.70;55.50;;;;;;4993893;28;20042;-73
2022/06/25 12:13:20;;;;;;;0.00;0.00;;;26.60;56.30;;;;;;4994924;28;20097;-75
2022/06/25 12:15:46;;;;;;;0.10;0.10;;;26.60;55.20;;;;;;4995064;28;20583;-75
2022/06/25 12:18:11;;;;;;;0.00;0.00;;;26.80;56.40;;;;;;4995035;28;20026;-75
2022/06/25 12:20:57;;;;;;;0.00;0.00;;;26.80;54.90;;;;;;4995421;28;20030;-75
2022/06/25 12:23:24;;;;;;;0.00;0.00;;;26.30;54.90;;;;;;4999304;28;20516;-76
2022/06/25 12:25:49;;;;;;;0.00;0.00;;;26.20;56.80;;;;;;4999363;28;20062;-77
2022/06/25 12:28:16;;;;;;;0.45;0.25;;;26.60;57.40;;;;;;4997441;28;20099;-75
2022/06/25 12:30:42;;;;;;;0.00;0.00;;;26.80;54.50;;;;;;4998568;28;20162;-75
2022/06/25 12:33:14;;;;;;;0.00;0.00;;;26.90;56.00;;;;;;4997100;28;20056;-75
2022/06/25 12:35:41;;;;;;;1.42;0.35;;;26.60;56.60;;;;;;4995335;28;20088;-74
2022/06/25 12:38:15;;;;;;;0.00;0.00;;;26.40;58.50;;;;;;4998355;28;20053;-76
2022/06/25 12:40:47;;;;;;;0.10;0.10;;;26.10;58.10;;;;;;4997839;28;20310;-74
2022/06/25 12:43:14;;;;;;;0.00;0.00;;;26.20;55.60;;;;;;4997961;28;20478;-74
2022/06/25 12:45:43;;;;;;;0.57;0.20;;;26.40;56.60;;;;;;4996443;28;20022;-75
2022/06/25 12:48:09;;;;;;;0.20;0.20;;;26.30;55.90;;;;;;4995435;28;20018;-73
2022/06/25 12:50:36;;;;;;;0.00;0.00;;;26.30;55.30;;;;;;4996130;28;20429;-73
2022/06/25 12:53:14;;;;;;;0.05;0.05;;;26.30;56.20;;;;;;4995973;28;20045;-72
2022/06/25 12:55:44;;;;;;;0.00;0.00;;;26.30;54.80;;;;;;4995064;28;20346;-73
2022/06/25 12:58:14;;;;;;;0.00;0.00;;;26.10;55.00;;;;;;4996937;28;20030;-73